100LL.CA
Aviation Fuel Pricing for Canadians
Please upgrade your browser - Tested with IE9, FireFox, Chrome, Safari

Fuel Prices Airport Info Airport List METAR / TAF Kneeboard RSS

Reference Airport: Langley Regional, BC
N 49 06 03   W 122 37 51

Enter a list of
Airport Idents:
Sort Method: As Entered    By Ident   

CYVR
METAR CYVR 220700Z 35003KT 20SM BKN100 13/10 A3000 RMK AC7 SLP162
TAF CYVR 220538Z 2206/2312 VRB03KT P6SM BKN100 FM220900 VRB03KT P6SM SCT100 FM221400 VRB03KT P6SM FEW100 BECMG 2218/2220 25008KT FM222300 27008KT P6SM SCT140 BKN210 BECMG 2306/2308 09006KT RMK NXT FCST BY 220900Z
CYXX
METAR CYXX 220700Z 35003KT 15SM OVC097 13/10 A3000 RMK AC8 SLP162
TAF CYXX 220538Z 2206/2306 VRB03KT P6SM BKN100 FM221200 VRB03KT P6SM SCT100 FM230000 23008KT P6SM BKN160 RMK NXT FCST BY 221200Z
KBLI
METAR KBLI 220653Z AUTO 32003KT 10SM OVC100 12/10 A3000 RMK AO2 SLP165 T01220100
TAF KBLI 220520Z 2206/2306 18003KT P6SM OVC100 FM221500 18005KT P6SM SCT120 SCT200